sensor_id;sensor_type;location;lat;lon;timestamp;temperature;humidity
35970;DHT22;22448;51.298;6.430;2023-07-31T00:00:15;16.30;99.90
35970;DHT22;22448;51.298;6.430;2023-07-31T00:02:42;16.20;99.90
35970;DHT22;22448;51.298;6.430;2023-07-31T00:05:09;16.20;99.90
35970;DHT22;22448;51.298;6.430;2023-07-31T00:07:36;16.20;99.90
35970;DHT22;22448;51.298;6.430;2023-07-31T00:10:04;16.20;99.90
35970;DHT22;22448;51.298;6.430;2023-07-31T00:12:31;16.20;99.90
35970;DHT22;22448;51.298;6.430;2023-07-31T00:14:58;16.20;99.90
35970;DHT22;22448;51.298;6.430;2023-07-31T00:17:25;16.20;99.90
35970;DHT22;22448;51.298;6.430;2023-07-31T00:19:52;16.30;99.90
35970;DHT22;22448;51.298;6.430;2023-07-31T00:22:19;16.20;99.90
35970;DHT22;22448;51.298;6.430;2023-07-31T00:24:46;16.20;99.90
35970;DHT22;22448;51.298;6.430;2023-07-31T00:27:13;16.30;99.90
35970;DHT22;22448;51.298;6.430;2023-07-31T00:29:40;16.20;99.90
35970;DHT22;22448;51.298;6.430;2023-07-31T00:32:07;16.20;99.90
35970;DHT22;22448;51.298;6.430;2023-07-31T00:34:36;16.20;99.90
35970;DHT22;22448;51.298;6.430;2023-07-31T00:37:04;16.20;99.90
35970;DHT22;22448;51.298;6.430;2023-07-31T00:39:31;16.20;99.90
35970;DHT22;22448;51.298;6.430;2023-07-31T00:41:59;16.20;99.90
35970;DHT22;22448;51.298;6.430;2023-07-31T00:44:26;16.20;99.90
35970;DHT22;22448;51.298;6.430;2023-07-31T00:46:54;16.20;99.90
35970;DHT22;22448;51.298;6.430;2023-07-31T00:49:22;16.20;99.90
35970;DHT22;22448;51.298;6.430;2023-07-31T00:51:49;16.10;99.90
35970;DHT22;22448;51.298;6.430;2023-07-31T00:54:17;16.10;99.90
35970;DHT22;22448;51.298;6.430;2023-07-31T00:56:46;16.10;99.90
35970;DHT22;22448;51.298;6.430;2023-07-31T00:59:15;16.10;99.90
35970;DHT22;22448;51.298;6.430;2023-07-31T01:01:43;16.10;99.90
35970;DHT22;22448;51.298;6.430;2023-07-31T01:04:10;16.10;99.90
35970;DHT22;22448;51.298;6.430;2023-07-31T01:07:14;16.10;99.90
35970;DHT22;22448;51.298;6.430;2023-07-31T01:10:15;16.10;99.90
35970;DHT22;22448;51.298;6.430;2023-07-31T01:12:45;16.10;99.90
35970;DHT22;22448;51.298;6.430;2023-07-31T01:15:13;16.10;99.90
35970;DHT22;22448;51.298;6.430;2023-07-31T01:17:42;16.10;99.90
35970;DHT22;22448;51.298;6.430;2023-07-31T01:20:21;16.10;99.90
35970;DHT22;22448;51.298;6.430;2023-07-31T01:28:27;16.10;99.90
35970;DHT22;22448;51.298;6.430;2023-07-31T01:30:58;16.10;99.90
35970;DHT22;22448;51.298;6.430;2023-07-31T01:33:27;16.10;99.90
35970;DHT22;22448;51.298;6.430;2023-07-31T01:35:56;16.10;99.90
35970;DHT22;22448;51.298;6.430;2023-07-31T01:38:23;16.10;99.90
35970;DHT22;22448;51.298;6.430;2023-07-31T01:40:52;16.10;99.90
35970;DHT22;22448;51.298;6.430;2023-07-31T01:43:20;16.10;99.90
35970;DHT22;22448;51.298;6.430;2023-07-31T01:45:47;16.10;99.90
35970;DHT22;22448;51.298;6.430;2023-07-31T01:48:14;16.10;99.90
35970;DHT22;22448;51.298;6.430;2023-07-31T01:50:41;16.10;99.90
35970;DHT22;22448;51.298;6.430;2023-07-31T01:53:08;16.10;99.90
35970;DHT22;22448;51.298;6.430;2023-07-31T01:55:35;16.10;99.90
35970;DHT22;22448;51.298;6.430;2023-07-31T01:58:02;16.00;99.90
35970;DHT22;22448;51.298;6.430;2023-07-31T02:00:29;16.10;99.90
35970;DHT22;22448;51.298;6.430;2023-07-31T02:02:56;16.10;99.90
35970;DHT22;22448;51.298;6.430;2023-07-31T02:05:23;16.10;99.90
35970;DHT22;22448;51.298;6.430;2023-07-31T02:07:50;16.10;99.90
35970;DHT22;22448;51.298;6.430;2023-07-31T02:10:18;16.00;99.90
35970;DHT22;22448;51.298;6.430;2023-07-31T02:12:45;16.00;99.90
35970;DHT22;22448;51.298;6.430;2023-07-31T02:15:12;16.00;99.90
35970;DHT22;22448;51.298;6.430;2023-07-31T02:17:39;16.00;99.90
35970;DHT22;22448;51.298;6.430;2023-07-31T02:20:07;16.00;99.90
35970;DHT22;22448;51.298;6.430;2023-07-31T02:22:34;16.10;99.90
35970;DHT22;22448;51.298;6.430;2023-07-31T02:25:02;16.00;99.90
35970;DHT22;22448;51.298;6.430;2023-07-31T02:27:29;16.00;99.90
35970;DHT22;22448;51.298;6.430;2023-07-31T02:29:56;16.00;99.90
35970;DHT22;22448;51.298;6.430;2023-07-31T02:32:23;16.00;99.90
35970;DHT22;22448;51.298;6.430;2023-07-31T02:34:50;16.10;99.90
35970;DHT22;22448;51.298;6.430;2023-07-31T02:37:17;16.00;99.90
35970;DHT22;22448;51.298;6.430;2023-07-31T02:39:45;16.00;99.90
35970;DHT22;22448;51.298;6.430;2023-07-31T02:42:13;16.10;99.90
35970;DHT22;22448;51.298;6.430;2023-07-31T02:44:40;16.00;99.90
35970;DHT22;22448;51.298;6.430;2023-07-31T02:47:07;16.10;99.90
35970;DHT22;22448;51.298;6.430;2023-07-31T02:49:34;16.10;99.90
35970;DHT22;22448;51.298;6.430;2023-07-31T02:52:01;16.10;99.90
35970;DHT22;22448;51.298;6.430;2023-07-31T02:54:28;16.10;99.90
35970;DHT22;22448;51.298;6.430;2023-07-31T02:56:55;16.10;99.90
35970;DHT22;22448;51.298;6.430;2023-07-31T02:59:22;16.10;99.90
35970;DHT22;22448;51.298;6.430;2023-07-31T03:01:49;16.10;99.90
35970;DHT22;22448;51.298;6.430;2023-07-31T03:04:17;16.10;99.90
35970;DHT22;22448;51.298;6.430;2023-07-31T03:06:45;16.10;99.90
35970;DHT22;22448;51.298;6.430;2023-07-31T03:09:12;16.20;99.90
35970;DHT22;22448;51.298;6.430;2023-07-31T03:11:39;16.20;99.90
35970;DHT22;22448;51.298;6.430;2023-07-31T03:14:06;16.20;99.90
35970;DHT22;22448;51.298;6.430;2023-07-31T03:16:33;16.20;99.90
35970;DHT22;22448;51.298;6.430;2023-07-31T03:19:00;16.20;99.90
35970;DHT22;22448;51.298;6.430;2023-07-31T03:21:28;16.20;99.90
35970;DHT22;22448;51.298;6.430;2023-07-31T03:23:55;16.20;99.90
35970;DHT22;22448;51.298;6.430;2023-07-31T03:26:22;16.20;99.90
35970;DHT22;22448;51.298;6.430;2023-07-31T03:28:49;16.20;99.90
35970;DHT22;22448;51.298;6.430;2023-07-31T03:31:16;16.30;99.90
35970;DHT22;22448;51.298;6.430;2023-07-31T03:33:43;16.30;99.90
35970;DHT22;22448;51.298;6.430;2023-07-31T03:36:10;16.30;99.90
35970;DHT22;22448;51.298;6.430;2023-07-31T03:38:37;16.30;99.90
35970;DHT22;22448;51.298;6.430;2023-07-31T03:41:04;16.40;99.90
35970;DHT22;22448;51.298;6.430;2023-07-31T03:43:33;16.40;99.90
35970;DHT22;22448;51.298;6.430;2023-07-31T03:46:03;16.40;99.90
35970;DHT22;22448;51.298;6.430;2023-07-31T03:48:30;16.40;99.90
35970;DHT22;22448;51.298;6.430;2023-07-31T03:50:57;16.40;99.90
35970;DHT22;22448;51.298;6.430;2023-07-31T03:53:24;16.40;99.90
35970;DHT22;22448;51.298;6.430;2023-07-31T03:55:51;16.40;99.90
35970;DHT22;22448;51.298;6.430;2023-07-31T03:58:18;16.40;99.90
35970;DHT22;22448;51.298;6.430;2023-07-31T04:00:45;16.40;99.90
35970;DHT22;22448;51.298;6.430;2023-07-31T04:03:12;16.40;99.90
35970;DHT22;22448;51.298;6.430;2023-07-31T04:05:39;16.40;99.90
35970;DHT22;22448;51.298;6.430;2023-07-31T04:08:07;16.40;99.90
35970;DHT22;22448;51.298;6.430;2023-07-31T04:10:34;16.40;99.90
35970;DHT22;22448;51.298;6.430;2023-07-31T04:13:01;16.40;99.90
35970;DHT22;22448;51.298;6.430;2023-07-31T04:15:28;16.40;99.90
35970;DHT22;22448;51.298;6.430;2023-07-31T04:17:55;16.40;99.90
35970;DHT22;22448;51.298;6.430;2023-07-31T04:20:22;16.40;99.90
35970;DHT22;22448;51.298;6.430;2023-07-31T04:22:49;16.40;99.90
35970;DHT22;22448;51.298;6.430;2023-07-31T04:25:16;16.40;99.90
35970;DHT22;22448;51.298;6.430;2023-07-31T04:27:43;16.40;99.90
35970;DHT22;22448;51.298;6.430;2023-07-31T04:30:10;16.50;99.90
35970;DHT22;22448;51.298;6.430;2023-07-31T04:32:37;16.50;99.90
35970;DHT22;22448;51.298;6.430;2023-07-31T04:35:05;16.50;99.90
35970;DHT22;22448;51.298;6.430;2023-07-31T04:37:32;16.50;99.90
35970;DHT22;22448;51.298;6.430;2023-07-31T04:39:59;16.60;99.90
35970;DHT22;22448;51.298;6.430;2023-07-31T04:42:26;16.60;99.90
35970;DHT22;22448;51.298;6.430;2023-07-31T04:44:53;16.60;99.90
35970;DHT22;22448;51.298;6.430;2023-07-31T04:47:20;16.70;99.90
35970;DHT22;22448;51.298;6.430;2023-07-31T04:49:47;16.70;99.90
35970;DHT22;22448;51.298;6.430;2023-07-31T04:52:14;16.70;99.90
35970;DHT22;22448;51.298;6.430;2023-07-31T04:54:41;16.70;99.90
35970;DHT22;22448;51.298;6.430;2023-07-31T04:57:08;16.80;99.90
35970;DHT22;22448;51.298;6.430;2023-07-31T04:59:35;16.80;99.90
35970;DHT22;22448;51.298;6.430;2023-07-31T05:02:03;16.80;99.90
35970;DHT22;22448;51.298;6.430;2023-07-31T05:04:31;16.80;99.90
35970;DHT22;22448;51.298;6.430;2023-07-31T05:06:58;16.80;99.90
35970;DHT22;22448;51.298;6.430;2023-07-31T05:09:25;16.80;99.90
35970;DHT22;22448;51.298;6.430;2023-07-31T05:11:52;16.90;99.90
35970;DHT22;22448;51.298;6.430;2023-07-31T05:14:19;16.80;99.90
35970;DHT22;22448;51.298;6.430;2023-07-31T05:16:47;16.80;99.90
35970;DHT22;22448;51.298;6.430;2023-07-31T05:19:14;16.90;99.90
35970;DHT22;22448;51.298;6.430;2023-07-31T05:21:41;16.90;99.90
35970;DHT22;22448;51.298;6.430;2023-07-31T05:24:08;16.90;99.90
35970;DHT22;22448;51.298;6.430;2023-07-31T05:26:35;16.90;99.90
35970;DHT22;22448;51.298;6.430;2023-07-31T05:29:02;17.00;99.90
35970;DHT22;22448;51.298;6.430;2023-07-31T05:31:29;17.00;99.90
35970;DHT22;22448;51.298;6.430;2023-07-31T05:33:56;17.00;99.90
35970;DHT22;22448;51.298;6.430;2023-07-31T05:36:23;17.00;99.90
35970;DHT22;22448;51.298;6.430;2023-07-31T05:38:50;17.00;99.90
35970;DHT22;22448;51.298;6.430;2023-07-31T05:41:18;17.00;99.90
35970;DHT22;22448;51.298;6.430;2023-07-31T05:43:45;17.00;99.90
35970;DHT22;22448;51.298;6.430;2023-07-31T05:46:12;17.10;99.90
35970;DHT22;22448;51.298;6.430;2023-07-31T05:48:39;17.10;99.90
35970;DHT22;22448;51.298;6.430;2023-07-31T05:51:06;17.10;99.90
35970;DHT22;22448;51.298;6.430;2023-07-31T05:53:33;17.10;99.90
35970;DHT22;22448;51.298;6.430;2023-07-31T05:56:02;17.10;99.90
35970;DHT22;22448;51.298;6.430;2023-07-31T05:58:30;17.00;99.90
35970;DHT22;22448;51.298;6.430;2023-07-31T06:00:57;17.00;99.90
35970;DHT22;22448;51.298;6.430;2023-07-31T06:03:24;17.00;99.90
35970;DHT22;22448;51.298;6.430;2023-07-31T06:05:51;16.90;99.90
35970;DHT22;22448;51.298;6.430;2023-07-31T06:08:18;16.90;99.90
35970;DHT22;22448;51.298;6.430;2023-07-31T06:10:45;16.80;99.90
35970;DHT22;22448;51.298;6.430;2023-07-31T06:13:12;16.80;99.90
35970;DHT22;22448;51.298;6.430;2023-07-31T06:15:39;16.80;99.90
35970;DHT22;22448;51.298;6.430;2023-07-31T06:18:06;16.80;99.90
35970;DHT22;22448;51.298;6.430;2023-07-31T06:20:34;16.80;99.90
35970;DHT22;22448;51.298;6.430;2023-07-31T06:23:01;16.80;99.90
35970;DHT22;22448;51.298;6.430;2023-07-31T06:25:29;16.70;99.90
35970;DHT22;22448;51.298;6.430;2023-07-31T06:27:56;16.70;99.90
35970;DHT22;22448;51.298;6.430;2023-07-31T06:30:23;16.70;99.90
35970;DHT22;22448;51.298;6.430;2023-07-31T06:32:50;16.70;99.90
35970;DHT22;22448;51.298;6.430;2023-07-31T06:35:17;16.70;99.90
35970;DHT22;22448;51.298;6.430;2023-07-31T06:37:44;16.80;99.90
35970;DHT22;22448;51.298;6.430;2023-07-31T06:40:11;16.70;99.90
35970;DHT22;22448;51.298;6.430;2023-07-31T06:42:38;16.80;99.90
35970;DHT22;22448;51.298;6.430;2023-07-31T06:45:06;16.80;99.90
35970;DHT22;22448;51.298;6.430;2023-07-31T06:47:33;16.80;99.90
35970;DHT22;22448;51.298;6.430;2023-07-31T06:50:00;16.80;99.90
35970;DHT22;22448;51.298;6.430;2023-07-31T06:52:27;16.80;99.90
35970;DHT22;22448;51.298;6.430;2023-07-31T06:55:03;16.80;99.90
35970;DHT22;22448;51.298;6.430;2023-07-31T06:57:30;16.80;99.90
35970;DHT22;22448;51.298;6.430;2023-07-31T06:59:57;16.70;99.90
35970;DHT22;22448;51.298;6.430;2023-07-31T07:02:24;16.70;99.90
35970;DHT22;22448;51.298;6.430;2023-07-31T07:04:51;16.70;99.90
35970;DHT22;22448;51.298;6.430;2023-07-31T07:07:19;16.60;99.90
35970;DHT22;22448;51.298;6.430;2023-07-31T07:09:46;16.60;99.90
35970;DHT22;22448;51.298;6.430;2023-07-31T07:12:12;16.60;99.90
35970;DHT22;22448;51.298;6.430;2023-07-31T07:14:40;16.50;99.90
35970;DHT22;22448;51.298;6.430;2023-07-31T07:17:07;16.50;99.90
35970;DHT22;22448;51.298;6.430;2023-07-31T07:19:34;16.50;99.90
35970;DHT22;22448;51.298;6.430;2023-07-31T07:22:01;16.50;99.90
35970;DHT22;22448;51.298;6.430;2023-07-31T07:24:28;16.50;99.90
35970;DHT22;22448;51.298;6.430;2023-07-31T07:26:55;16.60;99.90
35970;DHT22;22448;51.298;6.430;2023-07-31T07:29:22;16.60;99.90
35970;DHT22;22448;51.298;6.430;2023-07-31T07:31:49;16.80;99.90
35970;DHT22;22448;51.298;6.430;2023-07-31T07:34:17;16.70;99.90
35970;DHT22;22448;51.298;6.430;2023-07-31T07:36:44;16.70;99.90
35970;DHT22;22448;51.298;6.430;2023-07-31T07:39:11;16.70;99.90
35970;DHT22;22448;51.298;6.430;2023-07-31T07:41:38;16.70;99.90
35970;DHT22;22448;51.298;6.430;2023-07-31T07:44:06;16.70;99.90
35970;DHT22;22448;51.298;6.430;2023-07-31T07:46:33;16.70;99.90
35970;DHT22;22448;51.298;6.430;2023-07-31T07:49:00;16.80;99.90
35970;DHT22;22448;51.298;6.430;2023-07-31T07:51:27;16.90;99.90
35970;DHT22;22448;51.298;6.430;2023-07-31T07:53:54;16.90;99.90
35970;DHT22;22448;51.298;6.430;2023-07-31T07:56:21;17.00;99.90
35970;DHT22;22448;51.298;6.430;2023-07-31T07:58:51;17.00;99.90
35970;DHT22;22448;51.298;6.430;2023-07-31T08:01:18;17.00;99.90
35970;DHT22;22448;51.298;6.430;2023-07-31T08:03:46;17.10;99.90
35970;DHT22;22448;51.298;6.430;2023-07-31T08:06:14;17.20;99.90
35970;DHT22;22448;51.298;6.430;2023-07-31T08:08:41;17.10;99.90
35970;DHT22;22448;51.298;6.430;2023-07-31T08:11:08;17.00;99.90
35970;DHT22;22448;51.298;6.430;2023-07-31T08:13:35;17.00;99.90
35970;DHT22;22448;51.298;6.430;2023-07-31T08:16:04;17.10;99.90
35970;DHT22;22448;51.298;6.430;2023-07-31T08:18:31;17.10;99.90
35970;DHT22;22448;51.298;6.430;2023-07-31T08:20:59;17.20;99.90
35970;DHT22;22448;51.298;6.430;2023-07-31T08:23:26;17.10;99.90
35970;DHT22;22448;51.298;6.430;2023-07-31T08:25:52;17.10;99.90
35970;DHT22;22448;51.298;6.430;2023-07-31T08:28:19;17.10;99.90
35970;DHT22;22448;51.298;6.430;2023-07-31T08:30:46;17.20;99.90
35970;DHT22;22448;51.298;6.430;2023-07-31T08:33:13;17.20;99.90
35970;DHT22;22448;51.298;6.430;2023-07-31T08:35:40;17.20;99.90
35970;DHT22;22448;51.298;6.430;2023-07-31T08:38:07;17.20;99.90
35970;DHT22;22448;51.298;6.430;2023-07-31T08:40:38;17.20;99.90
35970;DHT22;22448;51.298;6.430;2023-07-31T08:43:05;17.20;99.90
35970;DHT22;22448;51.298;6.430;2023-07-31T08:45:32;17.30;99.90
35970;DHT22;22448;51.298;6.430;2023-07-31T08:47:59;17.30;99.90
35970;DHT22;22448;51.298;6.430;2023-07-31T08:50:26;17.30;99.90
35970;DHT22;22448;51.298;6.430;2023-07-31T08:52:54;17.40;99.90
35970;DHT22;22448;51.298;6.430;2023-07-31T08:55:25;17.30;99.90
35970;DHT22;22448;51.298;6.430;2023-07-31T08:57:52;17.20;99.90
35970;DHT22;22448;51.298;6.430;2023-07-31T09:00:20;17.20;99.90
35970;DHT22;22448;51.298;6.430;2023-07-31T09:03:03;17.30;99.90
35970;DHT22;22448;51.298;6.430;2023-07-31T09:05:36;17.20;99.90
35970;DHT22;22448;51.298;6.430;2023-07-31T09:08:04;17.20;99.90
35970;DHT22;22448;51.298;6.430;2023-07-31T09:10:31;17.30;99.90
35970;DHT22;22448;51.298;6.430;2023-07-31T09:12:59;17.40;99.90
35970;DHT22;22448;51.298;6.430;2023-07-31T09:15:27;17.40;99.90
35970;DHT22;22448;51.298;6.430;2023-07-31T09:18:06;17.50;99.90
35970;DHT22;22448;51.298;6.430;2023-07-31T09:20:33;17.40;99.90
35970;DHT22;22448;51.298;6.430;2023-07-31T09:23:10;17.40;99.90
35970;DHT22;22448;51.298;6.430;2023-07-31T09:25:38;17.50;99.90
35970;DHT22;22448;51.298;6.430;2023-07-31T09:28:07;17.50;99.90
35970;DHT22;22448;51.298;6.430;2023-07-31T09:30:51;17.60;99.90
35970;DHT22;22448;51.298;6.430;2023-07-31T09:33:19;17.60;99.90
35970;DHT22;22448;51.298;6.430;2023-07-31T09:35:46;17.60;99.90
35970;DHT22;22448;51.298;6.430;2023-07-31T09:38:15;17.50;99.90
35970;DHT22;22448;51.298;6.430;2023-07-31T09:40:45;17.70;99.90
35970;DHT22;22448;51.298;6.430;2023-07-31T09:43:22;17.70;99.90
35970;DHT22;22448;51.298;6.430;2023-07-31T09:45:55;17.60;99.90
35970;DHT22;22448;51.298;6.430;2023-07-31T09:48:23;17.50;99.90
35970;DHT22;22448;51.298;6.430;2023-07-31T09:50:54;17.50;99.90
35970;DHT22;22448;51.298;6.430;2023-07-31T09:53:28;17.50;99.90
35970;DHT22;22448;51.298;6.430;2023-07-31T09:55:58;17.50;99.90
35970;DHT22;22448;51.298;6.430;2023-07-31T09:58:28;17.40;99.90
35970;DHT22;22448;51.298;6.430;2023-07-31T10:00:57;17.40;99.90
35970;DHT22;22448;51.298;6.430;2023-07-31T10:03:26;17.40;99.90
35970;DHT22;22448;51.298;6.430;2023-07-31T10:05:56;17.40;99.90
35970;DHT22;22448;51.298;6.430;2023-07-31T10:08:28;17.50;99.90
35970;DHT22;22448;51.298;6.430;2023-07-31T10:10:59;17.50;99.90
35970;DHT22;22448;51.298;6.430;2023-07-31T10:13:28;17.60;99.90
35970;DHT22;22448;51.298;6.430;2023-07-31T10:15:58;17.80;99.90
35970;DHT22;22448;51.298;6.430;2023-07-31T10:18:26;17.90;99.90
35970;DHT22;22448;51.298;6.430;2023-07-31T10:20:54;18.10;99.90
35970;DHT22;22448;51.298;6.430;2023-07-31T10:23:23;18.30;99.90
35970;DHT22;22448;51.298;6.430;2023-07-31T10:25:53;18.30;99.90
35970;DHT22;22448;51.298;6.430;2023-07-31T10:28:21;18.30;99.90
35970;DHT22;22448;51.298;6.430;2023-07-31T10:30:49;18.40;99.90
35970;DHT22;22448;51.298;6.430;2023-07-31T10:33:18;18.60;99.90
35970;DHT22;22448;51.298;6.430;2023-07-31T10:35:47;18.60;99.90
35970;DHT22;22448;51.298;6.430;2023-07-31T10:38:15;18.60;99.90
35970;DHT22;22448;51.298;6.430;2023-07-31T10:40:42;18.60;99.90
35970;DHT22;22448;51.298;6.430;2023-07-31T10:43:23;18.40;99.90
35970;DHT22;22448;51.298;6.430;2023-07-31T10:45:51;18.30;99.90
35970;DHT22;22448;51.298;6.430;2023-07-31T10:48:19;18.30;99.90
35970;DHT22;22448;51.298;6.430;2023-07-31T10:50:50;18.30;99.90
35970;DHT22;22448;51.298;6.430;2023-07-31T10:53:26;18.20;99.90
35970;DHT22;22448;51.298;6.430;2023-07-31T10:55:53;18.20;99.90
35970;DHT22;22448;51.298;6.430;2023-07-31T10:58:24;18.20;99.90
35970;DHT22;22448;51.298;6.430;2023-07-31T11:00:57;18.30;99.90
35970;DHT22;22448;51.298;6.430;2023-07-31T11:03:26;18.30;99.90
35970;DHT22;22448;51.298;6.430;2023-07-31T11:06:03;18.30;99.90
35970;DHT22;22448;51.298;6.430;2023-07-31T11:08:33;18.30;99.90
35970;DHT22;22448;51.298;6.430;2023-07-31T11:13:39;18.40;99.90
35970;DHT22;22448;51.298;6.430;2023-07-31T11:16:07;18.40;99.90
35970;DHT22;22448;51.298;6.430;2023-07-31T11:18:34;18.40;99.90
35970;DHT22;22448;51.298;6.430;2023-07-31T11:21:01;18.40;99.90
35970;DHT22;22448;51.298;6.430;2023-07-31T11:23:28;18.30;99.90
35970;DHT22;22448;51.298;6.430;2023-07-31T11:25:59;18.30;99.90
35970;DHT22;22448;51.298;6.430;2023-07-31T11:28:31;18.30;99.90
35970;DHT22;22448;51.298;6.430;2023-07-31T11:31:00;18.20;99.90
35970;DHT22;22448;51.298;6.430;2023-07-31T11:33:27;18.20;99.90
35970;DHT22;22448;51.298;6.430;2023-07-31T11:35:54;18.20;99.90
35970;DHT22;22448;51.298;6.430;2023-07-31T11:40:53;18.30;99.90
35970;DHT22;22448;51.298;6.430;2023-07-31T11:43:21;18.30;99.90
35970;DHT22;22448;51.298;6.430;2023-07-31T11:45:57;18.30;99.90
35970;DHT22;22448;51.298;6.430;2023-07-31T11:48:28;18.30;99.90
35970;DHT22;22448;51.298;6.430;2023-07-31T11:51:00;18.30;99.90
35970;DHT22;22448;51.298;6.430;2023-07-31T11:53:51;18.30;99.90
35970;DHT22;22448;51.298;6.430;2023-07-31T11:56:19;18.20;99.90
35970;DHT22;22448;51.298;6.430;2023-07-31T11:58:49;18.20;99.90
35970;DHT22;22448;51.298;6.430;2023-07-31T12:01:19;18.20;99.90
35970;DHT22;22448;51.298;6.430;2023-07-31T12:03:47;18.30;99.90
35970;DHT22;22448;51.298;6.430;2023-07-31T12:06:14;18.20;99.90
35970;DHT22;22448;51.298;6.430;2023-07-31T12:08:41;18.20;99.90
35970;DHT22;22448;51.298;6.430;2023-07-31T12:11:09;18.10;99.90
35970;DHT22;22448;51.298;6.430;2023-07-31T12:13:36;18.10;99.90
35970;DHT22;22448;51.298;6.430;2023-07-31T12:16:04;18.10;99.90
35970;DHT22;22448;51.298;6.430;2023-07-31T12:18:35;18.20;99.90
35970;DHT22;22448;51.298;6.430;2023-07-31T12:21:05;18.20;99.90
35970;DHT22;22448;51.298;6.430;2023-07-31T12:23:34;18.20;99.90
35970;DHT22;22448;51.298;6.430;2023-07-31T12:26:10;18.20;99.90
35970;DHT22;22448;51.298;6.430;2023-07-31T12:28:55;18.20;99.90
35970;DHT22;22448;51.298;6.430;2023-07-31T12:31:23;18.20;99.90
35970;DHT22;22448;51.298;6.430;2023-07-31T12:33:55;18.30;99.90
35970;DHT22;22448;51.298;6.430;2023-07-31T12:36:23;18.30;99.90
35970;DHT22;22448;51.298;6.430;2023-07-31T12:38:52;18.40;99.90
35970;DHT22;22448;51.298;6.430;2023-07-31T12:41:19;18.50;99.90
35970;DHT22;22448;51.298;6.430;2023-07-31T12:43:46;18.60;99.90
35970;DHT22;22448;51.298;6.430;2023-07-31T12:46:13;18.80;99.90
35970;DHT22;22448;51.298;6.430;2023-07-31T12:48:41;19.00;99.90
35970;DHT22;22448;51.298;6.430;2023-07-31T12:51:10;19.10;99.90
35970;DHT22;22448;51.298;6.430;2023-07-31T12:53:37;19.20;99.90
35970;DHT22;22448;51.298;6.430;2023-07-31T12:56:04;19.40;99.90
35970;DHT22;22448;51.298;6.430;2023-07-31T12:58:31;19.40;99.90
35970;DHT22;22448;51.298;6.430;2023-07-31T13:00:58;19.40;99.90
35970;DHT22;22448;51.298;6.430;2023-07-31T13:03:25;19.40;99.90
35970;DHT22;22448;51.298;6.430;2023-07-31T13:05:53;19.40;99.90
35970;DHT22;22448;51.298;6.430;2023-07-31T13:08:20;19.40;99.90
35970;DHT22;22448;51.298;6.430;2023-07-31T13:10:47;19.40;99.90
35970;DHT22;22448;51.298;6.430;2023-07-31T13:13:14;19.40;99.90
35970;DHT22;22448;51.298;6.430;2023-07-31T13:15:43;19.50;99.90
35970;DHT22;22448;51.298;6.430;2023-07-31T13:18:10;19.50;99.90
35970;DHT22;22448;51.298;6.430;2023-07-31T13:20:37;19.60;99.90
35970;DHT22;22448;51.298;6.430;2023-07-31T13:23:04;19.60;99.90
35970;DHT22;22448;51.298;6.430;2023-07-31T13:25:31;19.60;99.90
35970;DHT22;22448;51.298;6.430;2023-07-31T13:28:01;19.60;99.90
35970;DHT22;22448;51.298;6.430;2023-07-31T13:30:29;19.50;99.90
35970;DHT22;22448;51.298;6.430;2023-07-31T13:32:56;19.40;99.90
35970;DHT22;22448;51.298;6.430;2023-07-31T13:35:23;19.40;99.90
35970;DHT22;22448;51.298;6.430;2023-07-31T13:37:50;19.20;99.90
35970;DHT22;22448;51.298;6.430;2023-07-31T13:40:17;19.20;99.90
35970;DHT22;22448;51.298;6.430;2023-07-31T13:42:44;19.20;99.90
35970;DHT22;22448;51.298;6.430;2023-07-31T13:45:13;19.20;99.90
35970;DHT22;22448;51.298;6.430;2023-07-31T13:47:41;19.20;99.90
35970;DHT22;22448;51.298;6.430;2023-07-31T13:50:08;19.20;99.90
35970;DHT22;22448;51.298;6.430;2023-07-31T13:52:35;19.20;99.90
35970;DHT22;22448;51.298;6.430;2023-07-31T13:55:03;19.10;99.90
35970;DHT22;22448;51.298;6.430;2023-07-31T13:57:30;19.10;99.90
35970;DHT22;22448;51.298;6.430;2023-07-31T13:59:57;19.00;99.90
35970;DHT22;22448;51.298;6.430;2023-07-31T14:02:24;18.90;99.90
35970;DHT22;22448;51.298;6.430;2023-07-31T14:04:51;18.90;99.90
35970;DHT22;22448;51.298;6.430;2023-07-31T14:07:18;18.90;99.90
35970;DHT22;22448;51.298;6.430;2023-07-31T14:09:45;18.80;99.90
35970;DHT22;22448;51.298;6.430;2023-07-31T14:12:12;18.80;99.90
35970;DHT22;22448;51.298;6.430;2023-07-31T14:14:51;18.90;99.90
35970;DHT22;22448;51.298;6.430;2023-07-31T14:17:18;18.90;99.90
35970;DHT22;22448;51.298;6.430;2023-07-31T14:19:45;19.00;99.90
35970;DHT22;22448;51.298;6.430;2023-07-31T14:22:12;19.10;99.90
35970;DHT22;22448;51.298;6.430;2023-07-31T14:24:39;19.20;99.90
35970;DHT22;22448;51.298;6.430;2023-07-31T14:27:06;19.20;99.90
35970;DHT22;22448;51.298;6.430;2023-07-31T14:29:33;19.20;99.90
35970;DHT22;22448;51.298;6.430;2023-07-31T14:32:00;19.20;99.90
35970;DHT22;22448;51.298;6.430;2023-07-31T14:34:27;19.20;99.90
35970;DHT22;22448;51.298;6.430;2023-07-31T14:36:54;19.20;99.90
35970;DHT22;22448;51.298;6.430;2023-07-31T14:39:21;19.10;99.90
35970;DHT22;22448;51.298;6.430;2023-07-31T14:41:48;19.10;99.90
35970;DHT22;22448;51.298;6.430;2023-07-31T14:44:15;19.00;99.90
35970;DHT22;22448;51.298;6.430;2023-07-31T14:46:42;19.00;99.90
35970;DHT22;22448;51.298;6.430;2023-07-31T14:49:10;18.90;99.90
35970;DHT22;22448;51.298;6.430;2023-07-31T14:51:37;19.00;99.90
35970;DHT22;22448;51.298;6.430;2023-07-31T14:54:04;19.00;99.90
35970;DHT22;22448;51.298;6.430;2023-07-31T14:56:31;19.00;99.90
35970;DHT22;22448;51.298;6.430;2023-07-31T14:58:58;19.00;99.90
35970;DHT22;22448;51.298;6.430;2023-07-31T15:01:25;19.00;99.90
35970;DHT22;22448;51.298;6.430;2023-07-31T15:03:52;19.00;99.90
35970;DHT22;22448;51.298;6.430;2023-07-31T15:06:20;19.10;99.90
35970;DHT22;22448;51.298;6.430;2023-07-31T15:08:47;19.10;99.90
35970;DHT22;22448;51.298;6.430;2023-07-31T15:11:14;19.10;99.90
35970;DHT22;22448;51.298;6.430;2023-07-31T15:13:43;19.10;99.90
35970;DHT22;22448;51.298;6.430;2023-07-31T15:16:10;19.10;99.90
35970;DHT22;22448;51.298;6.430;2023-07-31T15:18:37;19.00;99.90
35970;DHT22;22448;51.298;6.430;2023-07-31T15:21:04;19.00;99.90
35970;DHT22;22448;51.298;6.430;2023-07-31T15:23:33;19.00;99.90
35970;DHT22;22448;51.298;6.430;2023-07-31T15:26:00;19.00;99.90
35970;DHT22;22448;51.298;6.430;2023-07-31T15:28:28;18.90;99.90
35970;DHT22;22448;51.298;6.430;2023-07-31T15:30:55;18.80;99.90
35970;DHT22;22448;51.298;6.430;2023-07-31T15:33:22;18.70;99.90
35970;DHT22;22448;51.298;6.430;2023-07-31T15:35:49;18.70;99.90
35970;DHT22;22448;51.298;6.430;2023-07-31T15:38:16;18.60;99.90
35970;DHT22;22448;51.298;6.430;2023-07-31T15:40:44;18.50;99.90
35970;DHT22;22448;51.298;6.430;2023-07-31T15:43:11;18.50;99.90
35970;DHT22;22448;51.298;6.430;2023-07-31T15:45:38;18.40;99.90